Time;durP1;ratioP1;P1;durP2;ratioP2;P2;SDS_P1;SDS_P2;PMS_P1;PMS_P2;Temp;Humidity;BMP_temperature;BMP_pressure;BME280_temperature;BME280_humidity;BME280_pressure;Samples;Min_cycle;Max_cycle;Signal;HPM_P1;HPM_P2
2022/03/22 00:01:40;;;;;;;79.17;35.53;;;4.30;98.60;;;;;;4411147;32;20414;-68
2022/03/22 00:04:07;;;;;;;74.17;35.87;;;4.20;98.90;;;;;;4396827;32;20404;-68
2022/03/22 00:06:34;;;;;;;76.73;34.50;;;4.10;99.80;;;;;;4409196;32;20236;-67
2022/03/22 00:09:01;;;;;;;80.80;35.77;;;4.00;99.90;;;;;;4396767;32;20429;-68
2022/03/22 00:11:28;;;;;;;73.73;34.83;;;4.00;99.90;;;;;;4398288;32;20224;-67
2022/03/22 00:13:55;;;;;;;78.57;35.73;;;3.90;99.90;;;;;;4397247;32;20194;-68
2022/03/22 00:16:22;;;;;;;76.80;34.97;;;3.90;99.90;;;;;;4396033;32;20195;-68
2022/03/22 00:19:09;;;;;;;75.57;36.13;;;3.80;99.90;;;;;;4396863;32;20216;-68
2022/03/22 00:21:36;;;;;;;84.33;37.27;;;3.80;99.90;;;;;;4396036;32;20464;-68
2022/03/22 00:24:03;;;;;;;80.77;36.63;;;3.70;99.90;;;;;;4396401;32;20177;-68
2022/03/22 00:26:30;;;;;;;75.07;35.00;;;3.70;99.90;;;;;;4409919;32;20523;-68
2022/03/22 00:28:59;;;;;;;81.97;36.13;;;3.70;99.90;;;;;;4410867;32;20563;-68
2022/03/22 00:31:29;;;;;;;73.57;35.87;;;3.60;99.90;;;;;;4397040;32;20173;-68
2022/03/22 00:33:57;;;;;;;86.23;36.43;;;3.60;99.90;;;;;;4408840;32;20500;-68
2022/03/22 00:36:24;;;;;;;77.33;35.20;;;3.50;99.90;;;;;;4396839;32;20175;-68
2022/03/22 00:38:51;;;;;;;85.17;37.67;;;3.50;99.90;;;;;;4396363;32;20197;-68
2022/03/22 00:41:19;;;;;;;77.80;35.60;;;3.40;99.90;;;;;;4397760;32;20226;-69
2022/03/22 00:43:46;;;;;;;81.03;36.23;;;3.40;99.90;;;;;;4396890;32;20192;-67
2022/03/22 00:46:13;;;;;;;83.00;37.00;;;3.30;99.90;;;;;;4395935;32;20592;-68
2022/03/22 00:48:42;;;;;;;78.67;37.20;;;3.30;99.90;;;;;;4411398;32;20144;-68
2022/03/22 00:51:09;;;;;;;89.00;37.73;;;3.20;99.90;;;;;;4410073;32;20230;-68
2022/03/22 00:53:36;;;;;;;77.17;37.37;;;3.20;99.90;;;;;;4396707;32;20282;-67
2022/03/22 00:56:04;;;;;;;83.30;37.03;;;3.20;99.90;;;;;;4396397;32;20188;-68
2022/03/22 00:58:32;;;;;;;80.17;36.27;;;3.10;99.90;;;;;;4409445;32;20179;-68
2022/03/22 01:00:59;;;;;;;80.43;37.03;;;3.10;99.90;;;;;;4408817;32;20256;-68
2022/03/22 01:03:28;;;;;;;78.03;35.83;;;3.10;99.90;;;;;;4410368;32;20161;-68
2022/03/22 01:05:58;;;;;;;82.83;36.77;;;3.00;99.90;;;;;;4410437;32;20212;-68
2022/03/22 01:08:29;;;;;;;81.27;36.53;;;2.90;99.90;;;;;;4409552;32;20161;-68
2022/03/22 01:10:56;;;;;;;83.87;36.73;;;2.90;99.90;;;;;;4409185;32;20400;-68
2022/03/22 01:13:30;;;;;;;79.53;36.40;;;2.80;99.90;;;;;;4396374;32;20164;-68
2022/03/22 01:15:58;;;;;;;82.97;36.50;;;2.80;99.90;;;;;;4409739;32;20234;-68
2022/03/22 01:18:25;;;;;;;84.63;37.83;;;2.80;99.90;;;;;;4409500;32;20237;-67
2022/03/22 01:20:52;;;;;;;82.20;37.63;;;2.70;99.90;;;;;;4396050;32;20175;-68
2022/03/22 01:23:19;;;;;;;83.87;36.57;;;2.70;99.90;;;;;;4409886;32;20177;-67
2022/03/22 01:25:48;;;;;;;82.37;37.00;;;2.70;99.90;;;;;;4396289;32;20200;-68
2022/03/22 01:28:15;;;;;;;82.73;36.03;;;2.80;99.90;;;;;;4408850;32;20513;-68
2022/03/22 01:30:43;;;;;;;74.73;35.63;;;2.70;99.90;;;;;;4396497;32;20427;-67
2022/03/22 01:33:12;;;;;;;83.17;36.80;;;2.80;99.90;;;;;;4409130;32;20194;-67
2022/03/22 01:35:40;;;;;;;80.80;36.80;;;2.80;99.90;;;;;;4396162;32;20213;-67
2022/03/22 01:38:08;;;;;;;82.57;36.97;;;2.80;99.90;;;;;;4409943;32;20148;-68
2022/03/22 01:40:35;;;;;;;79.47;36.43;;;2.80;99.90;;;;;;4411118;32;20140;-67
2022/03/22 01:43:03;;;;;;;85.27;37.00;;;2.80;99.90;;;;;;4395382;32;20179;-67
2022/03/22 01:45:30;;;;;;;86.87;37.70;;;2.80;99.90;;;;;;4395558;32;20194;-67
2022/03/22 01:47:59;;;;;;;81.43;37.27;;;2.80;99.90;;;;;;4395290;32;20190;-67
2022/03/22 01:50:29;;;;;;;89.67;38.37;;;2.80;99.90;;;;;;4396494;32;20236;-68
2022/03/22 01:52:58;;;;;;;76.90;35.90;;;2.80;99.90;;;;;;4409336;32;20156;-68
2022/03/22 01:55:25;;;;;;;74.20;36.60;;;2.70;99.90;;;;;;4395566;32;20637;-68
2022/03/22 01:57:52;;;;;;;75.40;36.43;;;2.70;99.90;;;;;;4395496;32;20170;-68
2022/03/22 02:00:20;;;;;;;77.20;36.93;;;2.60;99.90;;;;;;4394966;32;20549;-68
2022/03/22 02:08:35;;;;;;;83.00;37.13;;;2.40;99.90;;;;;;4334570;33;20250;-67
2022/03/22 02:11:02;;;;;;;86.50;39.27;;;2.30;99.90;;;;;;4347421;33;20154;-67
2022/03/22 02:13:31;;;;;;;94.73;41.23;;;2.30;99.90;;;;;;4334655;33;20181;-67
2022/03/22 02:16:00;;;;;;;96.40;43.03;;;2.30;99.90;;;;;;4322302;33;20223;-68
2022/03/22 02:18:27;;;;;;;90.63;41.60;;;2.20;99.90;;;;;;4345884;33;20531;-68
2022/03/22 02:20:55;;;;;;;100.07;42.33;;;2.20;99.90;;;;;;4334511;33;20550;-67
2022/03/22 02:23:51;;;;;;;91.33;42.73;;;2.10;99.90;;;;;;4334186;33;20181;-67
2022/03/22 02:26:20;;;;;;;98.17;43.67;;;2.10;99.90;;;;;;4346933;33;20637;-68
2022/03/22 02:28:53;;;;;;;101.27;43.73;;;2.00;99.90;;;;;;4335364;33;20176;-67
2022/03/22 02:31:25;;;;;;;102.47;43.93;;;2.00;99.90;;;;;;4334020;33;20511;-67
2022/03/22 02:33:52;;;;;;;96.70;43.23;;;2.00;99.90;;;;;;4334056;33;20220;-68
2022/03/22 02:36:19;;;;;;;100.83;44.87;;;1.90;99.90;;;;;;4335672;33;20178;-68
2022/03/22 02:38:47;;;;;;;106.67;45.27;;;1.90;99.90;;;;;;4335866;33;20189;-68
2022/03/22 02:41:19;;;;;;;99.47;44.63;;;1.90;99.90;;;;;;4348443;33;20405;-67
2022/03/22 02:43:48;;;;;;;104.57;46.00;;;1.90;99.90;;;;;;4333960;33;20188;-67
2022/03/22 02:46:15;;;;;;;103.83;47.20;;;1.80;99.90;;;;;;4395159;32;20171;-67
2022/03/22 02:48:43;;;;;;;109.90;48.57;;;1.80;99.90;;;;;;4408571;32;20131;-67
2022/03/22 02:51:11;;;;;;;108.77;47.60;;;1.80;99.90;;;;;;4394841;32;20241;-68
2022/03/22 02:53:38;;;;;;;108.10;46.90;;;1.80;99.90;;;;;;4408907;32;20151;-67
2022/03/22 02:56:05;;;;;;;110.13;46.37;;;1.80;99.90;;;;;;4407270;32;20190;-68
2022/03/22 02:58:33;;;;;;;113.83;47.67;;;1.80;99.90;;;;;;4407950;32;20216;-68
2022/03/22 03:01:02;;;;;;;119.63;48.67;;;1.80;99.90;;;;;;4408915;32;20145;-68
2022/03/22 03:03:29;;;;;;;106.40;47.13;;;1.80;99.90;;;;;;4406846;32;20192;-68
2022/03/22 03:05:56;;;;;;;111.20;48.87;;;1.80;99.90;;;;;;4394528;32;20190;-67
2022/03/22 03:08:26;;;;;;;114.57;48.60;;;1.70;99.90;;;;;;4396105;32;20167;-69
2022/03/22 03:10:54;;;;;;;118.57;49.70;;;1.70;99.90;;;;;;4409097;32;20135;-68
2022/03/22 03:13:21;;;;;;;107.70;47.43;;;1.60;99.90;;;;;;4394566;32;20179;-67
2022/03/22 03:15:50;;;;;;;108.50;46.83;;;1.60;99.90;;;;;;4409017;32;20186;-67
2022/03/22 03:18:19;;;;;;;113.53;49.00;;;1.60;99.90;;;;;;4408767;32;20170;-68
2022/03/22 03:20:46;;;;;;;112.80;48.17;;;1.60;99.90;;;;;;4408260;32;20165;-68
2022/03/22 03:23:13;;;;;;;111.63;48.97;;;1.50;99.90;;;;;;4398717;32;20223;-68
2022/03/22 03:25:40;;;;;;;117.37;48.80;;;1.50;99.90;;;;;;4422441;32;20429;-68
2022/03/22 03:28:09;;;;;;;115.27;49.00;;;1.40;99.90;;;;;;4408075;32;20178;-68
2022/03/22 03:30:36;;;;;;;119.77;48.63;;;1.40;99.90;;;;;;4414710;32;20151;-68
2022/03/22 03:33:03;;;;;;;117.23;48.60;;;1.40;99.90;;;;;;4416996;32;20151;-68
2022/03/22 03:35:30;;;;;;;120.37;51.00;;;1.40;99.90;;;;;;4423220;32;20220;-68
2022/03/22 03:37:57;;;;;;;122.30;52.17;;;1.50;99.90;;;;;;4421979;32;20247;-68
2022/03/22 03:41:53;;;;;;;120.53;51.40;;;1.50;99.90;;;;;;4419394;32;20406;-68
2022/03/22 03:43:12;;;;;;;124.23;51.30;;;1.50;99.90;;;;;;4408539;32;20206;-68
2022/03/22 03:48:24;;;;;;;121.50;50.07;;;1.30;99.90;;;;;;4408373;32;20147;-68
2022/03/22 03:50:52;;;;;;;119.67;50.93;;;1.30;99.90;;;;;;4407907;32;20189;-68
2022/03/22 03:53:18;;;;;;;129.40;52.83;;;1.30;99.90;;;;;;4394440;32;20229;-67
2022/03/22 03:55:45;;;;;;;124.60;51.93;;;1.20;99.90;;;;;;4409403;32;20159;-68
2022/03/22 03:58:15;;;;;;;124.57;51.30;;;1.20;99.90;;;;;;4397505;32;20244;-68
2022/03/22 04:00:42;;;;;;;125.87;52.53;;;1.20;99.90;;;;;;4396937;32;20166;-68
2022/03/22 04:03:10;;;;;;;125.37;51.83;;;1.20;99.90;;;;;;4397307;32;20175;-68
2022/03/22 04:05:37;;;;;;;125.13;52.57;;;1.30;99.90;;;;;;4410684;32;20139;-68
2022/03/22 04:08:08;;;;;;;133.97;53.23;;;1.30;99.90;;;;;;4398190;32;20233;-68
2022/03/22 04:10:35;;;;;;;128.33;53.47;;;1.30;99.90;;;;;;4396650;32;20175;-68
2022/03/22 04:13:02;;;;;;;125.20;51.40;;;1.20;99.90;;;;;;4396885;32;20155;-68
2022/03/22 04:15:29;;;;;;;128.90;52.43;;;1.20;99.90;;;;;;4411147;32;20179;-68
2022/03/22 04:17:59;;;;;;;128.37;52.67;;;1.20;99.90;;;;;;4396668;32;20182;-68
2022/03/22 04:20:26;;;;;;;130.63;52.57;;;1.10;99.90;;;;;;4411019;32;20155;-68
2022/03/22 04:22:53;;;;;;;125.00;52.07;;;1.10;99.90;;;;;;4411651;32;20166;-68
2022/03/22 04:25:20;;;;;;;120.90;51.40;;;1.10;99.90;;;;;;4397632;32;20188;-67
2022/03/22 04:33:18;;;;;;;126.93;53.13;;;0.90;99.90;;;;;;4396636;32;20194;-67
2022/03/22 04:35:45;;;;;;;122.37;52.57;;;0.90;99.90;;;;;;4397398;32;20190;-68
2022/03/22 04:38:12;;;;;;;125.43;52.23;;;0.90;99.90;;;;;;4409037;32;20186;-67
2022/03/22 04:40:40;;;;;;;138.63;57.43;;;0.90;99.90;;;;;;4410996;32;20139;-68
2022/03/22 04:43:07;;;;;;;159.20;62.30;;;0.90;99.90;;;;;;4396569;32;20170;-68
2022/03/22 04:45:35;;;;;;;160.97;62.53;;;0.90;99.90;;;;;;4396482;32;20191;-68
2022/03/22 04:48:02;;;;;;;159.53;62.80;;;0.90;99.90;;;;;;4396338;32;20198;-68
2022/03/22 04:50:29;;;;;;;160.33;64.03;;;0.90;99.90;;;;;;4396936;32;20264;-68
2022/03/22 04:58:27;;;;;;;168.47;68.30;;;0.90;99.90;;;;;;4409977;32;20170;-68
2022/03/22 05:00:54;;;;;;;163.23;68.43;;;0.80;99.90;;;;;;4410427;32;20143;-68
2022/03/22 05:03:21;;;;;;;171.83;69.20;;;0.90;99.90;;;;;;4396250;32;20259;-68
2022/03/22 05:08:34;;;;;;;164.27;67.13;;;0.90;99.90;;;;;;4410125;32;20399;-68
2022/03/22 05:11:01;;;;;;;164.27;67.13;;;0.90;99.90;;;;;;4410244;32;20138;-67
2022/03/22 05:13:28;;;;;;;173.20;69.07;;;1.00;99.90;;;;;;4396333;32;20190;-67
2022/03/22 05:15:54;;;;;;;185.60;72.43;;;1.00;99.90;;;;;;4395962;32;20529;-68
2022/03/22 05:18:21;;;;;;;176.63;68.87;;;1.00;99.90;;;;;;4396738;32;20192;-68
2022/03/22 05:20:48;;;;;;;183.93;73.20;;;1.00;99.90;;;;;;4395655;32;20189;-68
2022/03/22 05:23:17;;;;;;;186.23;73.00;;;1.00;99.90;;;;;;4410872;32;20155;-68
2022/03/22 05:25:44;;;;;;;468.57;110.07;;;1.10;99.90;;;;;;4396461;32;20201;-68
2022/03/22 05:28:11;;;;;;;199.33;78.50;;;1.10;99.90;;;;;;4397259;32;20216;-68
2022/03/22 05:30:38;;;;;;;195.03;75.17;;;1.00;99.90;;;;;;4396036;32;20228;-68
2022/03/22 05:33:05;;;;;;;187.20;73.50;;;1.10;99.90;;;;;;4409780;32;20558;-67
2022/03/22 05:35:33;;;;;;;185.83;73.83;;;1.20;99.90;;;;;;4395379;32;20163;-67
2022/03/22 05:38:00;;;;;;;182.37;72.57;;;1.20;99.90;;;;;;4396048;32;20232;-68
2022/03/22 05:40:28;;;;;;;186.80;72.87;;;1.30;99.90;;;;;;4410423;32;20206;-68
2022/03/22 05:42:55;;;;;;;171.77;70.87;;;1.40;99.90;;;;;;4396161;32;20187;-68
2022/03/22 05:45:23;;;;;;;179.70;72.00;;;1.50;99.90;;;;;;4408846;32;20247;-67
2022/03/22 05:47:51;;;;;;;170.33;69.13;;;1.60;99.90;;;;;;4395466;32;20202;-67
2022/03/22 05:50:18;;;;;;;158.10;66.63;;;1.60;99.90;;;;;;4395841;32;20171;-68
2022/03/22 05:52:49;;;;;;;164.70;68.03;;;1.70;99.90;;;;;;4395487;32;20209;-68
2022/03/22 05:55:17;;;;;;;167.33;68.63;;;1.80;99.90;;;;;;4407569;32;20235;-67
2022/03/22 05:57:44;;;;;;;158.53;66.70;;;1.90;99.90;;;;;;4382701;32;20236;-67
2022/03/22 06:00:13;;;;;;;170.13;66.63;;;2.00;99.90;;;;;;4395344;32;20194;-67
2022/03/22 06:02:41;;;;;;;162.33;66.50;;;2.10;99.90;;;;;;4408919;32;20209;-68
2022/03/22 06:05:11;;;;;;;168.10;65.63;;;2.10;99.90;;;;;;4408904;32;20222;-68
2022/03/22 06:07:39;;;;;;;163.20;64.67;;;2.20;99.90;;;;;;4407987;32;20172;-68
2022/03/22 06:10:08;;;;;;;154.37;65.10;;;2.30;99.90;;;;;;4394983;32;20228;-68
2022/03/22 06:12:39;;;;;;;160.73;66.53;;;2.50;99.90;;;;;;4395480;32;20182;-68
2022/03/22 06:15:17;;;;;;;155.67;64.90;;;2.80;99.90;;;;;;4395319;32;20226;-67
2022/03/22 06:17:49;;;;;;;151.93;63.93;;;3.40;99.90;;;;;;4409056;32;20169;-68
2022/03/22 06:20:18;;;;;;;162.80;64.90;;;3.50;99.90;;;;;;4407987;32;20177;-68
2022/03/22 06:22:46;;;;;;;160.20;65.43;;;3.40;99.90;;;;;;4409195;32;20458;-68
2022/03/22 06:25:13;;;;;;;153.70;65.10;;;3.40;99.90;;;;;;4394578;32;20173;-68
2022/03/22 06:27:42;;;;;;;159.27;65.20;;;3.50;99.90;;;;;;4395145;32;20198;-68
2022/03/22 06:30:10;;;;;;;147.90;62.73;;;3.50;99.90;;;;;;4395350;32;20177;-68
2022/03/22 06:32:56;;;;;;;151.03;63.20;;;3.60;99.90;;;;;;4407450;32;20188;-68
2022/03/22 06:35:32;;;;;;;146.03;59.47;;;3.80;99.90;;;;;;4395252;32;20182;-68
2022/03/22 06:38:00;;;;;;;144.10;60.23;;;4.10;99.90;;;;;;4408761;32;20165;-68
2022/03/22 06:40:30;;;;;;;121.80;52.23;;;4.20;99.90;;;;;;4394573;32;20222;-68
2022/03/22 06:42:58;;;;;;;118.53;52.87;;;4.40;99.90;;;;;;4407016;32;20225;-68
2022/03/22 06:45:25;;;;;;;124.00;52.87;;;4.60;99.90;;;;;;4394820;32;20230;-68
2022/03/22 06:47:53;;;;;;;118.00;53.27;;;4.80;99.90;;;;;;4394798;32;20185;-68
2022/03/22 06:50:24;;;;;;;128.63;51.83;;;4.80;99.90;;;;;;4394530;32;20197;-68
2022/03/22 06:52:52;;;;;;;133.63;55.90;;;4.90;99.90;;;;;;4394771;32;20196;-68
2022/03/22 06:55:22;;;;;;;125.57;54.37;;;5.10;99.90;;;;;;4408356;32;20216;-69
2022/03/22 06:57:56;;;;;;;129.60;52.70;;;5.20;99.90;;;;;;4407845;32;20174;-68
2022/03/22 07:00:24;;;;;;;123.83;51.97;;;5.30;99.90;;;;;;4408461;32;20139;-68
2022/03/22 07:02:50;;;;;;;117.20;51.63;;;5.40;99.90;;;;;;4394299;32;20183;-68
2022/03/22 07:05:17;;;;;;;115.80;50.00;;;5.50;99.90;;;;;;4394671;32;20190;-68
2022/03/22 07:07:45;;;;;;;113.70;50.10;;;5.60;99.90;;;;;;4395068;32;20405;-68
2022/03/22 07:10:14;;;;;;;112.57;50.10;;;5.80;99.90;;;;;;4395054;32;20202;-67
2022/03/22 07:12:58;;;;;;;117.03;50.77;;;5.90;99.90;;;;;;4406729;32;20174;-67
2022/03/22 07:15:35;;;;;;;119.47;51.77;;;6.10;99.90;;;;;;4407856;32;20174;-67
2022/03/22 07:18:05;;;;;;;110.13;49.27;;;6.20;99.90;;;;;;4406811;32;20242;-67
2022/03/22 07:20:33;;;;;;;115.07;49.87;;;6.30;99.90;;;;;;4408110;32;20165;-68
2022/03/22 07:23:00;;;;;;;107.57;48.63;;;6.40;99.90;;;;;;4393836;32;20209;-67
2022/03/22 07:25:33;;;;;;;106.97;48.47;;;6.50;99.90;;;;;;4394428;32;20221;-67
2022/03/22 07:28:01;;;;;;;100.73;46.27;;;6.70;99.90;;;;;;4407805;32;20186;-67
2022/03/22 07:30:28;;;;;;;101.63;45.30;;;6.80;99.90;;;;;;4409762;32;20143;-67
2022/03/22 07:32:55;;;;;;;97.30;45.50;;;7.00;99.90;;;;;;4411265;32;20151;-67
2022/03/22 07:35:23;;;;;;;92.83;43.80;;;7.20;99.90;;;;;;4409986;32;20242;-67
2022/03/22 07:37:50;;;;;;;90.43;43.00;;;7.40;99.90;;;;;;4397871;32;20175;-67
2022/03/22 07:40:18;;;;;;;89.97;40.83;;;7.50;99.90;;;;;;4398279;32;20228;-67
2022/03/22 07:42:48;;;;;;;79.63;39.07;;;7.70;99.90;;;;;;4411160;32;20139;-67
2022/03/22 07:45:15;;;;;;;80.43;38.47;;;7.80;99.90;;;;;;4397735;32;20435;-67
2022/03/22 07:47:42;;;;;;;81.77;38.83;;;7.90;99.90;;;;;;4409715;32;20178;-67
2022/03/22 07:53:00;;;;;;;69.93;34.30;;;8.30;99.90;;;;;;4411989;32;20230;-67
2022/03/22 07:55:31;;;;;;;65.60;32.50;;;8.40;99.90;;;;;;4398084;32;20195;-67
2022/03/22 07:57:58;;;;;;;72.00;33.67;;;8.50;99.90;;;;;;4396947;32;20170;-67
2022/03/22 08:00:26;;;;;;;78.47;36.33;;;8.60;99.90;;;;;;4410571;32;20177;-67
2022/03/22 08:02:56;;;;;;;75.67;37.47;;;8.80;99.90;;;;;;4409328;32;20242;-67
2022/03/22 08:05:24;;;;;;;77.17;36.97;;;8.90;99.90;;;;;;4396808;32;20170;-67
2022/03/22 08:07:53;;;;;;;70.90;35.00;;;9.00;99.90;;;;;;4396601;32;20208;-67
2022/03/22 08:10:22;;;;;;;76.67;36.67;;;9.20;99.90;;;;;;4398068;32;20510;-67
2022/03/22 08:12:49;;;;;;;73.37;34.87;;;9.40;99.90;;;;;;4410936;32;20181;-68
2022/03/22 08:15:17;;;;;;;70.03;34.23;;;9.60;99.90;;;;;;4396512;32;20171;-68
2022/03/22 08:17:45;;;;;;;64.23;32.03;;;9.80;99.90;;;;;;4397016;32;20175;-68
2022/03/22 08:20:13;;;;;;;59.00;29.60;;;9.90;99.90;;;;;;4409323;32;20213;-67
2022/03/22 08:22:50;;;;;;;57.73;28.03;;;10.00;98.60;;;;;;4396086;32;20199;-68
2022/03/22 08:25:29;;;;;;;62.90;29.67;;;10.10;98.00;;;;;;4396478;32;20175;-68
2022/03/22 08:27:59;;;;;;;62.63;30.33;;;10.60;97.10;;;;;;4408903;32;20174;-67
2022/03/22 08:30:28;;;;;;;48.20;25.57;;;11.40;94.30;;;;;;4409391;32;20548;-67
2022/03/22 08:33:00;;;;;;;43.33;23.83;;;12.30;89.60;;;;;;4397762;32;20614;-67
2022/03/22 08:35:28;;;;;;;44.73;22.23;;;12.90;82.20;;;;;;4396920;32;20244;-68
2022/03/22 08:37:56;;;;;;;48.03;22.37;;;13.60;75.50;;;;;;4410610;32;20143;-67
2022/03/22 08:40:23;;;;;;;40.50;20.60;;;13.90;69.30;;;;;;4396663;32;20190;-70
2022/03/22 08:42:53;;;;;;;39.33;20.70;;;14.20;67.70;;;;;;4410013;32;20370;-70
2022/03/22 08:45:22;;;;;;;40.70;22.73;;;14.70;64.60;;;;;;4396412;32;20202;-70
2022/03/22 08:47:51;;;;;;;49.23;26.00;;;15.00;64.50;;;;;;4396269;32;20166;-70
2022/03/22 08:50:25;;;;;;;44.33;23.53;;;15.50;63.50;;;;;;4410191;32;20167;-71
2022/03/22 08:52:56;;;;;;;50.27;24.30;;;15.90;61.70;;;;;;4396051;32;20230;-69
2022/03/22 08:55:25;;;;;;;44.57;23.43;;;16.30;59.50;;;;;;4410001;32;20182;-69
2022/03/22 08:57:52;;;;;;;42.00;21.97;;;16.70;58.20;;;;;;4397544;32;20201;-69
2022/03/22 09:00:20;;;;;;;39.03;21.07;;;17.00;56.20;;;;;;4409051;32;20182;-69
2022/03/22 09:02:50;;;;;;;44.00;21.83;;;17.30;55.50;;;;;;4395985;32;20197;-68
2022/03/22 09:08:06;;;;;;;36.17;20.00;;;17.80;53.00;;;;;;4408808;32;20186;-69
2022/03/22 09:10:35;;;;;;;37.73;19.23;;;18.00;53.20;;;;;;4396469;32;20179;-69
2022/03/22 09:13:04;;;;;;;36.10;18.80;;;18.50;52.40;;;;;;4409201;32;20165;-69
2022/03/22 09:15:33;;;;;;;35.27;19.13;;;18.60;51.50;;;;;;4410478;32;20218;-69
2022/03/22 09:18:00;;;;;;;32.23;17.97;;;18.90;50.40;;;;;;4410037;32;20186;-69
2022/03/22 09:20:32;;;;;;;31.53;17.77;;;19.20;49.50;;;;;;4409847;32;20446;-68
2022/03/22 09:23:01;;;;;;;35.90;17.77;;;19.70;49.20;;;;;;4399156;32;20170;-68
2022/03/22 09:25:28;;;;;;;33.03;18.63;;;20.10;47.80;;;;;;4400419;32;20186;-69
2022/03/22 09:27:56;;;;;;;32.03;18.00;;;19.90;47.00;;;;;;4408261;32;20163;-69
2022/03/22 09:30:24;;;;;;;30.57;18.00;;;20.10;46.80;;;;;;4397204;32;20179;-69
2022/03/22 09:32:51;;;;;;;32.37;18.20;;;20.30;46.60;;;;;;4410493;32;20194;-66
2022/03/22 09:35:19;;;;;;;32.27;18.33;;;19.90;45.40;;;;;;4399734;32;20175;-67
2022/03/22 09:37:48;;;;;;;33.67;17.67;;;19.60;46.00;;;;;;4396781;32;20442;-67
2022/03/22 09:40:18;;;;;;;31.87;18.23;;;19.80;46.70;;;;;;4396246;32;20167;-67
2022/03/22 09:42:46;;;;;;;34.10;18.60;;;20.30;45.80;;;;;;4395893;32;20174;-68
2022/03/22 09:45:17;;;;;;;31.37;17.60;;;20.80;45.80;;;;;;4395464;32;20178;-68
2022/03/22 09:47:46;;;;;;;35.53;18.43;;;21.30;44.60;;;;;;4409371;32;20170;-68
2022/03/22 09:50:15;;;;;;;33.13;18.10;;;21.60;43.60;;;;;;4396042;32;20194;-68
2022/03/22 09:52:42;;;;;;;33.13;18.53;;;21.70;43.00;;;;;;4394417;32;20179;-68
2022/03/22 09:55:11;;;;;;;35.27;18.03;;;21.60;41.70;;;;;;4394889;32;20246;-69
2022/03/22 09:57:39;;;;;;;32.40;17.93;;;21.00;42.60;;;;;;4395203;32;20174;-70
2022/03/22 10:00:08;;;;;;;28.40;17.63;;;21.40;43.10;;;;;;4407783;32;20167;-67
2022/03/22 10:02:35;;;;;;;30.90;17.97;;;21.70;42.30;;;;;;4407207;32;20178;-67
2022/03/22 10:05:03;;;;;;;29.67;17.60;;;22.00;41.20;;;;;;4394954;32;20194;-69
2022/03/22 10:07:30;;;;;;;32.73;17.97;;;22.50;41.50;;;;;;4408823;32;20194;-67
2022/03/22 10:10:04;;;;;;;32.70;18.47;;;22.80;40.30;;;;;;4395121;32;20194;-67
2022/03/22 10:12:37;;;;;;;31.60;18.77;;;22.80;39.50;;;;;;4409103;32;20179;-67
2022/03/22 10:15:12;;;;;;;33.72;18.83;;;23.20;39.20;;;;;;4394500;32;20209;-67
2022/03/22 10:17:40;;;;;;;30.90;18.45;;;23.40;39.10;;;;;;4408292;32;20175;-67
2022/03/22 10:20:08;;;;;;;31.33;17.93;;;23.50;38.30;;;;;;4394567;32;20575;-67
2022/03/22 10:22:37;;;;;;;28.30;17.70;;;23.70;38.30;;;;;;4409059;32;20147;-66
2022/03/22 10:25:06;;;;;;;32.30;18.37;;;23.60;38.10;;;;;;4394466;32;20182;-68
2022/03/22 10:27:34;;;;;;;29.67;17.17;;;23.90;38.60;;;;;;4395343;32;20450;-68
2022/03/22 10:30:21;;;;;;;29.25;15.82;;;24.00;36.80;;;;;;4394660;32;20171;-67
2022/03/22 10:32:51;;;;;;;34.60;16.62;;;24.10;36.60;;;;;;4408449;32;20166;-67
2022/03/22 10:35:36;;;;;;;23.27;13.23;;;24.10;36.20;;;;;;4401482;32;20166;-67
2022/03/22 10:38:04;;;;;;;23.73;13.20;;;24.40;34.00;;;;;;4410820;32;20174;-68
2022/03/22 10:40:40;;;;;;;25.30;13.20;;;23.40;33.50;;;;;;4409573;32;20210;-68
2022/03/22 10:43:18;;;;;;;23.92;13.70;;;23.50;34.40;;;;;;4409897;32;20200;-67
2022/03/22 10:46:00;;;;;;;21.20;12.52;;;23.40;34.80;;;;;;4410464;32;20197;-67
2022/03/22 10:48:37;;;;;;;19.80;12.13;;;23.10;34.10;;;;;;4409645;32;20167;-67
2022/03/22 10:51:06;;;;;;;22.05;12.65;;;22.90;34.90;;;;;;4409483;32;20174;-67
2022/03/22 10:53:35;;;;;;;21.73;12.60;;;23.40;35.20;;;;;;4409976;32;20212;-68
2022/03/22 10:56:03;;;;;;;19.55;11.43;;;24.00;34.80;;;;;;4409984;32;20236;-67
2022/03/22 10:58:31;;;;;;;19.73;11.10;;;24.30;33.20;;;;;;4408471;32;20204;-68
2022/03/22 11:01:03;;;;;;;19.77;11.00;;;24.40;31.80;;;;;;4408833;32;20174;-67
2022/03/22 11:03:32;;;;;;;19.77;10.73;;;24.60;32.10;;;;;;4409664;32;20285;-68
2022/03/22 11:06:04;;;;;;;18.62;10.68;;;25.00;31.70;;;;;;4412316;32;20182;-68
2022/03/22 11:08:32;;;;;;;18.70;10.75;;;25.20;31.20;;;;;;4413124;32;20241;-68
2022/03/22 11:10:59;;;;;;;16.77;10.55;;;25.50;30.80;;;;;;4425361;32;20189;-67
2022/03/22 11:13:26;;;;;;;20.08;11.88;;;25.40;31.10;;;;;;4413278;32;20521;-68
2022/03/22 11:15:56;;;;;;;20.35;12.57;;;25.70;31.30;;;;;;4409932;32;20205;-70
2022/03/22 11:18:25;;;;;;;20.02;12.30;;;26.00;31.30;;;;;;4410573;32;20229;-69
2022/03/22 11:20:59;;;;;;;18.05;11.52;;;26.10;31.10;;;;;;4336903;33;20474;-69
2022/03/22 11:23:28;;;;;;;21.87;12.48;;;26.50;30.90;;;;;;4336797;33;20188;-68
2022/03/22 11:26:10;;;;;;;19.33;11.60;;;27.00;30.00;;;;;;4349755;33;20520;-68
2022/03/22 11:28:39;;;;;;;17.98;11.27;;;26.80;29.90;;;;;;4349588;33;20227;-70
2022/03/22 11:31:09;;;;;;;19.55;11.80;;;27.30;30.00;;;;;;4360951;32;20284;-69
2022/03/22 11:36:27;;;;;;;20.58;11.43;;;28.10;29.00;;;;;;4363460;33;20168;-69
2022/03/22 11:39:01;;;;;;;16.80;11.27;;;28.40;28.50;;;;;;4384211;32;20190;-69
2022/03/22 11:44:42;;;;;;;17.75;10.95;;;28.80;27.70;;;;;;4427136;32;20170;-69
2022/03/22 11:47:19;;;;;;;21.37;11.57;;;29.40;27.70;;;;;;4412338;32;20253;-68
2022/03/22 11:49:58;;;;;;;18.30;11.18;;;30.10;27.00;;;;;;4412533;32;20234;-69
2022/03/22 11:52:35;;;;;;;17.87;10.95;;;30.60;26.50;;;;;;4426379;32;20150;-69
2022/03/22 11:55:07;;;;;;;19.25;11.15;;;31.70;26.20;;;;;;4427004;32;20181;-69
2022/03/22 11:57:46;;;;;;;20.65;11.63;;;32.10;26.00;;;;;;4423905;32;20552;-69
2022/03/22 12:00:15;;;;;;;17.67;11.38;;;32.10;25.70;;;;;;4425420;32;20559;-70
2022/03/22 12:02:51;;;;;;;16.75;11.30;;;32.60;25.20;;;;;;4421315;32;20186;-69
2022/03/22 12:05:20;;;;;;;19.23;12.30;;;32.90;25.20;;;;;;4411967;32;20412;-69
2022/03/22 12:07:47;;;;;;;18.90;11.73;;;33.20;25.00;;;;;;4414803;32;20163;-68
2022/03/22 12:10:17;;;;;;;17.25;12.00;;;33.40;24.90;;;;;;4411736;32;20235;-68
2022/03/22 12:12:49;;;;;;;19.12;11.43;;;32.70;24.40;;;;;;4412537;32;20174;-70
2022/03/22 12:15:19;;;;;;;21.30;11.77;;;32.60;25.00;;;;;;4411345;32;20182;-68
2022/03/22 12:17:46;;;;;;;19.77;11.50;;;32.70;24.60;;;;;;4423549;32;20236;-70
2022/03/22 12:20:15;;;;;;;19.00;12.20;;;33.10;24.40;;;;;;4411723;32;20174;-69
2022/03/22 12:22:51;;;;;;;18.50;12.00;;;32.70;24.50;;;;;;4412206;32;20224;-70
2022/03/22 12:25:20;;;;;;;17.45;11.95;;;33.30;24.30;;;;;;4425139;32;20254;-68
2022/03/22 12:27:56;;;;;;;18.65;12.32;;;33.70;24.30;;;;;;4425502;32;20420;-67
2022/03/22 12:30:26;;;;;;;17.70;12.02;;;34.00;24.00;;;;;;4411774;32;20201;-69
2022/03/22 12:32:55;;;;;;;17.05;11.85;;;34.70;23.90;;;;;;4423742;32;20213;-69
2022/03/22 12:35:23;;;;;;;19.75;11.90;;;35.30;24.10;;;;;;4411154;32;20255;-69
2022/03/22 12:37:52;;;;;;;16.98;11.63;;;35.10;23.50;;;;;;4425940;32;20147;-70
2022/03/22 12:40:21;;;;;;;18.02;11.93;;;35.50;23.50;;;;;;4424225;32;20202;-69
2022/03/22 12:42:50;;;;;;;18.05;11.57;;;35.50;23.10;;;;;;4412396;32;20479;-69
2022/03/22 12:45:19;;;;;;;17.00;11.70;;;35.20;23.90;;;;;;4411568;32;20219;-69
2022/03/22 12:47:48;;;;;;;18.55;12.15;;;35.60;23.50;;;;;;4410980;32;20238;-69
2022/03/22 12:50:20;;;;;;;19.02;11.82;;;35.20;23.40;;;;;;4424980;32;20242;-69
2022/03/22 12:52:48;;;;;;;17.87;11.88;;;33.80;23.50;;;;;;4411239;32;20183;-68
2022/03/22 12:55:16;;;;;;;19.58;11.98;;;33.70;23.50;;;;;;4424802;32;20146;-68
2022/03/22 12:57:46;;;;;;;20.27;12.60;;;33.60;23.40;;;;;;4410729;32;20190;-68
2022/03/22 13:00:32;;;;;;;17.27;12.32;;;33.80;23.60;;;;;;4411356;32;20255;-69
2022/03/22 13:03:14;;;;;;;17.50;11.80;;;34.20;23.30;;;;;;4423817;32;20201;-69
2022/03/22 13:05:43;;;;;;;18.87;11.75;;;34.30;23.40;;;;;;4411688;32;20423;-68
2022/03/22 13:08:22;;;;;;;16.90;11.60;;;34.20;23.40;;;;;;4425125;32;20244;-68
2022/03/22 13:16:35;;;;;;;18.27;11.30;;;34.10;23.50;;;;;;4424466;32;20223;-67
2022/03/22 13:19:04;;;;;;;15.82;10.77;;;33.60;23.60;;;;;;4410925;32;20179;-67